createdAt,value
2023-02-12T00:01:44.303Z,102390.23
2023-02-12T00:05:13.534Z,102393.27
2023-02-12T00:08:43.084Z,102398.70
2023-02-12T00:12:20.060Z,102400.13
2023-02-12T00:15:53.210Z,102395.48
2023-02-12T00:19:22.402Z,102398.92
2023-02-12T00:22:52.076Z,102390.48
2023-02-12T00:26:21.281Z,102389.84
2023-02-12T00:30:28.260Z,102388.85
2023-02-12T00:33:40.074Z,102388.97
2023-02-12T00:37:09.608Z,102398.65
2023-02-12T00:40:39.096Z,102397.77
2023-02-12T00:44:08.527Z,102401.55
2023-02-12T00:47:37.412Z,102405.55
2023-02-12T00:51:44.914Z,102405.81
2023-02-12T00:54:56.568Z,102409.86
2023-02-12T00:58:25.579Z,102403.91
2023-02-12T01:01:54.478Z,102388.45
2023-02-12T01:05:23.445Z,102380.93
2023-02-12T01:08:52.817Z,102377.88
2023-02-12T01:12:12.159Z,102370.23
2023-02-12T01:15:41.725Z,102366.03
2023-02-12T01:19:11.127Z,102362.47
2023-02-12T01:22:40.894Z,102356.89
2023-02-12T01:26:10.117Z,102347.26
2023-02-12T01:29:25.376Z,102342.83
2023-02-12T01:32:54.659Z,102338.58
2023-02-12T01:36:24.018Z,102332.58
2023-02-12T01:39:53.096Z,102324.45
2023-02-12T01:43:22.763Z,102325.98
2023-02-12T01:46:52.380Z,102334.44
2023-02-12T01:50:21.632Z,102341.91
2023-02-12T01:53:50.608Z,102337.14
2023-02-12T01:57:19.909Z,102331.36
2023-02-12T02:00:52.126Z,102343.93
2023-02-12T02:04:21.302Z,102356.57
2023-02-12T02:07:53.644Z,102362.13
2023-02-12T02:11:21.951Z,102368.33
2023-02-12T02:14:53.801Z,102368.61
2023-02-12T02:18:29.343Z,102367.95
2023-02-12T02:22:22.760Z,102369.05
2023-02-12T02:25:52.074Z,102370.83
2023-02-12T02:29:31.124Z,102371.58
2023-02-12T02:33:09.211Z,102375.93
2023-02-12T02:36:58.097Z,102371.31
2023-02-12T02:40:34.554Z,102370.64
2023-02-12T02:44:04.008Z,102373.24
2023-02-12T02:47:36.621Z,102366.72
2023-02-12T02:51:05.422Z,102359.82
2023-02-12T02:54:35.280Z,102345.27
2023-02-12T02:58:07.763Z,102342.80
2023-02-12T03:01:39.947Z,102325.09
2023-02-12T03:05:09.425Z,102324.61
2023-02-12T03:09:24.036Z,102325.13
2023-02-12T03:12:35.174Z,102307.36
2023-02-12T03:15:55.370Z,102310.02
2023-02-12T03:19:24.230Z,102313.98
2023-02-12T03:22:52.912Z,102315.95
2023-02-12T03:26:15.847Z,102314.73
2023-02-12T03:29:45.359Z,102313.90
2023-02-12T03:33:17.810Z,102321.98
2023-02-12T03:36:50.069Z,102327.60
2023-02-12T03:40:19.609Z,102328.32
2023-02-12T03:43:48.829Z,102327.41
2023-02-12T03:47:18.384Z,102328.02
2023-02-12T03:50:59.166Z,102324.83
2023-02-12T03:54:28.377Z,102326.66
2023-02-12T03:57:53.202Z,102312.85
2023-02-12T04:01:22.725Z,102311.70
2023-02-12T04:04:52.198Z,102325.64
2023-02-12T04:08:21.553Z,102332.47
2023-02-12T04:12:12.235Z,102329.64
2023-02-12T04:15:47.368Z,102325.42
2023-02-12T04:19:24.968Z,102335.58
2023-02-12T04:22:56.538Z,102344.55
2023-02-12T04:26:31.250Z,102345.42
2023-02-12T04:30:19.250Z,102338.01
2023-02-12T04:33:55.184Z,102340.23
2023-02-12T04:37:24.441Z,102343.04
2023-02-12T04:40:53.605Z,102331.83
2023-02-12T04:44:29.188Z,102326.40
2023-02-12T04:47:56.996Z,102330.48
2023-02-12T04:51:28.833Z,102345.70
2023-02-12T04:54:57.664Z,102354.55
2023-02-12T04:58:29.754Z,102379.05
2023-02-12T05:01:58.925Z,102375.40
2023-02-12T05:05:28.364Z,102371.04
2023-02-12T05:08:57.620Z,102364.72
2023-02-12T05:12:26.847Z,102356.35
2023-02-12T05:15:55.954Z,102349.99
2023-02-12T05:19:28.371Z,102362.02
2023-02-12T05:22:57.408Z,102362.59
2023-02-12T05:26:26.443Z,102381.84
2023-02-12T05:29:55.208Z,102388.11
2023-02-12T05:33:24.306Z,102385.39
2023-02-12T05:36:44.893Z,102410.67
2023-02-12T05:40:14.137Z,102420.81
2023-02-12T05:47:25.654Z,102421.53
2023-02-12T05:50:54.763Z,102417.66
2023-02-12T05:54:24.131Z,102403.09
2023-02-12T05:57:53.163Z,102409.05
2023-02-12T06:01:22.558Z,102416.42
2023-02-12T06:04:58.322Z,102414.45
2023-02-12T06:08:21.227Z,102408.25
2023-02-12T06:11:50.252Z,102397.79
2023-02-12T06:15:19.350Z,102395.00
2023-02-12T06:18:48.841Z,102389.70
2023-02-12T06:22:12.087Z,102382.67
2023-02-12T06:25:40.999Z,102380.86
2023-02-12T06:29:09.956Z,102371.48
2023-02-12T06:32:39.212Z,102373.02
2023-02-12T06:35:49.436Z,102375.71
2023-02-12T06:39:19.042Z,102367.26
2023-02-12T06:42:38.465Z,102362.75
2023-02-12T06:46:08.119Z,102365.58
2023-02-12T06:49:36.806Z,102376.95
2023-02-12T06:53:05.923Z,102377.29
2023-02-12T06:56:35.201Z,102377.77
2023-02-12T07:00:02.842Z,102375.55
2023-02-12T07:03:16.770Z,102382.36
2023-02-12T07:06:45.685Z,102389.13
2023-02-12T07:10:14.678Z,102392.05
2023-02-12T07:13:43.459Z,102396.71
2023-02-12T07:17:12.425Z,102398.52
2023-02-12T07:20:41.222Z,102397.73
2023-02-12T07:24:09.646Z,102405.57
2023-02-12T07:27:38.918Z,102398.22
2023-02-12T07:31:08.486Z,102399.95
2023-02-12T07:34:37.357Z,102402.35
2023-02-12T07:38:06.271Z,102402.41
2023-02-12T07:41:35.572Z,102397.26
2023-02-12T07:45:05.282Z,102392.22
2023-02-12T07:48:34.317Z,102387.23
2023-02-12T07:52:11.489Z,102392.55
2023-02-12T07:55:42.136Z,102395.41
2023-02-12T07:59:10.939Z,102393.08
2023-02-12T08:02:40.409Z,102392.15
2023-02-12T08:06:18.352Z,102391.75
2023-02-12T08:09:47.776Z,102393.93
2023-02-12T08:13:16.873Z,102396.54
2023-02-12T08:16:39.488Z,102399.88
2023-02-12T08:20:08.968Z,102400.49
2023-02-12T08:23:38.014Z,102416.92
2023-02-12T08:27:12.716Z,102410.35
2023-02-12T08:30:41.831Z,102406.35
2023-02-12T08:34:10.693Z,102407.03
2023-02-12T08:37:39.429Z,102405.94
2023-02-12T08:41:08.415Z,102403.05
2023-02-12T08:44:37.274Z,102401.98
2023-02-12T08:48:06.281Z,102410.58
2023-02-12T08:51:35.650Z,102410.82
2023-02-12T08:55:04.909Z,102408.94
2023-02-12T08:58:34.083Z,102406.30
2023-02-12T09:02:05.993Z,102398.15
2023-02-12T09:05:35.576Z,102397.91
2023-02-12T09:09:04.879Z,102399.70
2023-02-12T09:12:34.104Z,102398.30
2023-02-12T09:16:03.313Z,102398.13
2023-02-12T09:19:32.755Z,102402.33
2023-02-12T09:23:01.996Z,102401.90
2023-02-12T09:26:31.417Z,102401.10
2023-02-12T09:30:00.791Z,102402.55
2023-02-12T09:33:29.093Z,102400.25
2023-02-12T09:36:58.722Z,102396.68
2023-02-12T09:40:27.858Z,102389.36
2023-02-12T09:44:06.199Z,102394.11
2023-02-12T09:47:50.882Z,102388.45
2023-02-12T09:51:35.379Z,102386.69
2023-02-12T09:54:56.369Z,102384.73
2023-02-12T09:58:28.447Z,102381.78
2023-02-12T10:01:57.180Z,102376.46
2023-02-12T10:05:26.151Z,102374.84
2023-02-12T10:09:10.100Z,102373.02
2023-02-12T10:12:47.101Z,102375.66
2023-02-12T10:16:21.017Z,102382.77
2023-02-12T10:20:11.230Z,102392.18
2023-02-12T10:23:46.520Z,102390.08
2023-02-12T10:27:09.246Z,102392.94
2023-02-12T10:30:38.222Z,102395.26
2023-02-12T10:34:07.428Z,102399.11
2023-02-12T10:37:42.849Z,102408.01
2023-02-12T10:41:22.070Z,102411.51
2023-02-12T10:44:54.550Z,102422.34
2023-02-12T10:48:24.046Z,102440.13
2023-02-12T10:51:52.755Z,102447.42
2023-02-12T10:55:37.219Z,102438.27
2023-02-12T10:58:59.948Z,102432.78
2023-02-12T11:02:29.389Z,102423.49
2023-02-12T11:05:58.981Z,102420.23
2023-02-12T11:09:37.631Z,102434.26
2023-02-12T11:13:19.125Z,102431.56
2023-02-12T11:16:51.625Z,102423.86
2023-02-12T11:20:26.654Z,102418.31
2023-02-12T11:24:08.144Z,102410.27
2023-02-12T11:27:55.929Z,102415.15
2023-02-12T11:31:30.858Z,102411.39
2023-02-12T11:35:08.816Z,102405.30
2023-02-12T11:38:37.982Z,102403.30
2023-02-12T11:42:02.691Z,102405.96
2023-02-12T11:45:31.883Z,102402.98
2023-02-12T11:49:01.285Z,102405.09
2023-02-12T11:52:30.452Z,102406.48
2023-02-12T11:56:03.189Z,102400.84
2023-02-12T11:59:32.467Z,102391.53
2023-02-12T12:03:04.641Z,102384.30
2023-02-12T12:06:36.627Z,102370.46
2023-02-12T12:10:08.143Z,102362.24
2023-02-12T12:13:40.682Z,102359.54
2023-02-12T12:17:27.429Z,102363.91
2023-02-12T12:20:54.780Z,102352.78
2023-02-12T12:24:39.168Z,102359.95
2023-02-12T12:28:27.123Z,102349.37
2023-02-12T12:32:04.873Z,102340.05
2023-02-12T12:35:33.720Z,102332.62
2023-02-12T12:39:08.850Z,102327.54
2023-02-12T12:42:50.013Z,102321.91
2023-02-12T12:46:22.571Z,102321.03
2023-02-12T12:50:04.396Z,102306.94
2023-02-12T12:53:52.090Z,102303.16
2023-02-12T12:57:27.047Z,102304.38
2023-02-12T13:01:02.077Z,102306.95
2023-02-12T13:04:37.497Z,102308.22
2023-02-12T13:08:21.522Z,102310.09
2023-02-12T13:11:56.674Z,102308.30
2023-02-12T13:15:34.500Z,102304.98
2023-02-12T13:19:41.567Z,102300.96
2023-02-12T13:23:08.071Z,102296.45
2023-02-12T13:27:01.809Z,102282.90
2023-02-12T13:30:34.084Z,102281.83
2023-02-12T13:34:06.719Z,102274.63
2023-02-12T13:37:28.890Z,102268.77
2023-02-12T13:40:56.409Z,102268.34
2023-02-12T13:44:47.522Z,102261.79
2023-02-12T13:48:06.904Z,102259.92
2023-02-12T13:51:41.037Z,102269.17
2023-02-12T13:55:30.965Z,102269.57
2023-02-12T13:59:20.340Z,102265.10
2023-02-12T14:02:48.208Z,102266.73
2023-02-12T14:06:23.166Z,102260.23
2023-02-12T14:09:55.031Z,102251.08
2023-02-12T14:13:29.120Z,102246.11
2023-02-12T14:17:01.415Z,102236.23
2023-02-12T14:20:48.600Z,102239.05
2023-02-12T14:24:30.096Z,102253.66
2023-02-12T14:27:59.272Z,102256.59
2023-02-12T14:31:28.608Z,102275.75
2023-02-12T14:35:07.450Z,102282.06
2023-02-12T14:42:25.456Z,102276.58
2023-02-12T14:45:57.775Z,102267.21
2023-02-12T14:49:42.468Z,102268.62
2023-02-12T14:53:14.757Z,102277.80
2023-02-12T14:56:43.700Z,102278.66
2023-02-12T15:00:13.258Z,102264.60
2023-02-12T15:03:54.966Z,102243.85
2023-02-12T15:07:24.596Z,102231.95
2023-02-12T15:10:59.632Z,102223.48
2023-02-12T15:14:29.337Z,102230.05
2023-02-12T15:18:10.724Z,102229.46
2023-02-12T15:22:00.229Z,102223.39
2023-02-12T15:25:29.390Z,102223.28
2023-02-12T15:29:01.304Z,102225.94
2023-02-12T15:32:33.361Z,102232.58
2023-02-12T15:36:05.352Z,102261.04
2023-02-12T15:39:36.932Z,102272.20
2023-02-12T15:43:08.572Z,102266.39
2023-02-12T15:46:37.972Z,102247.67
2023-02-12T15:50:10.189Z,102228.02
2023-02-12T15:53:30.145Z,102225.05
2023-02-12T15:56:59.468Z,102227.65
2023-02-12T16:00:28.563Z,102226.77
2023-02-12T16:03:57.925Z,102237.48
2023-02-12T16:07:27.289Z,102239.98
2023-02-12T16:10:56.602Z,102236.77
2023-02-12T16:14:28.725Z,102232.67
2023-02-12T16:18:00.331Z,102226.56
2023-02-12T16:21:15.626Z,102254.02
2023-02-12T16:24:44.690Z,102266.05
2023-02-12T16:28:19.437Z,102259.03
2023-02-12T16:31:48.662Z,102236.61
2023-02-12T16:35:08.869Z,102235.62
2023-02-12T16:38:30.818Z,102257.42
2023-02-12T16:42:18.076Z,102254.96
2023-02-12T16:45:37.356Z,102233.66
2023-02-12T16:49:13.008Z,102235.65
2023-02-12T16:53:00.596Z,102227.38
2023-02-12T16:56:29.661Z,102215.15
2023-02-12T17:00:01.825Z,102205.81
2023-02-12T17:03:31.185Z,102209.25
2023-02-12T17:07:00.299Z,102216.20
2023-02-12T17:10:28.972Z,102223.91
2023-02-12T17:13:57.678Z,102231.20
2023-02-12T17:17:27.003Z,102248.94
2023-02-12T17:20:45.668Z,102253.44
2023-02-12T17:24:14.484Z,102268.61
2023-02-12T17:27:31.955Z,102269.06
2023-02-12T17:31:00.786Z,102260.59
2023-02-12T17:34:32.082Z,102259.95
2023-02-12T17:38:08.649Z,102252.64
2023-02-12T17:41:37.874Z,102245.86
2023-02-12T17:45:07.520Z,102233.30
2023-02-12T17:48:06.692Z,102218.95
2023-02-12T17:52:07.281Z,102213.39
2023-02-12T17:55:17.501Z,102200.54
2023-02-12T17:58:46.486Z,102192.16
2023-02-12T18:02:15.304Z,102186.88
2023-02-12T18:05:44.695Z,102189.56
2023-02-12T18:09:13.891Z,102184.48
2023-02-12T18:12:43.065Z,102176.64
2023-02-12T18:16:08.893Z,102182.06
2023-02-12T18:19:37.990Z,102182.39
2023-02-12T18:23:05.859Z,102174.36
2023-02-12T18:26:34.722Z,102163.36
2023-02-12T18:30:03.860Z,102165.31
2023-02-12T18:33:33.442Z,102170.11
2023-02-12T18:37:03.580Z,102165.50
2023-02-12T18:40:32.226Z,102144.64
2023-02-12T18:44:01.346Z,102145.27
2023-02-12T18:47:30.479Z,102150.00
2023-02-12T18:51:00.039Z,102159.33
2023-02-12T18:54:29.021Z,102162.73
2023-02-12T18:57:58.138Z,102158.79
2023-02-12T19:01:27.774Z,102154.48
2023-02-12T19:04:57.328Z,102147.60
2023-02-12T19:08:27.053Z,102134.98
2023-02-12T19:11:56.544Z,102138.20
2023-02-12T19:15:26.005Z,102137.83
2023-02-12T19:18:55.348Z,102134.62
2023-02-12T19:22:24.499Z,102133.88
2023-02-12T19:25:53.258Z,102139.77
2023-02-12T19:29:13.119Z,102143.79
2023-02-12T19:32:41.878Z,102140.70
2023-02-12T19:36:10.769Z,102132.05
2023-02-12T19:39:40.070Z,102132.38
2023-02-12T19:43:08.886Z,102131.66
2023-02-12T19:46:38.181Z,102133.92
2023-02-12T19:50:07.318Z,102138.18
2023-02-12T19:53:36.079Z,102136.00
2023-02-12T19:57:05.533Z,102130.21
2023-02-12T20:00:14.377Z,102114.33
2023-02-12T20:03:37.657Z,102106.05
2023-02-12T20:07:09.987Z,102102.26
2023-02-12T20:10:39.113Z,102103.07
2023-02-12T20:14:08.521Z,102090.59
2023-02-12T20:17:40.454Z,102086.83
2023-02-12T20:21:09.616Z,102078.16
2023-02-12T20:24:38.802Z,102067.40
2023-02-12T20:28:07.886Z,102051.65
2023-02-12T20:31:37.467Z,102036.83
2023-02-12T20:35:01.689Z,102036.27
2023-02-12T20:38:30.943Z,102025.23
2023-02-12T20:42:03.147Z,102010.58
2023-02-12T20:45:32.175Z,101996.53
2023-02-12T20:49:01.676Z,101994.26
2023-02-12T20:52:30.928Z,101980.76
2023-02-12T20:55:59.913Z,101984.33
2023-02-12T20:59:29.305Z,101988.75
2023-02-12T21:02:57.724Z,102011.71
2023-02-12T21:06:26.896Z,102030.82
2023-02-12T21:09:56.117Z,102026.14
2023-02-12T21:13:25.423Z,101998.11
2023-02-12T21:16:57.546Z,102003.89
2023-02-12T21:20:26.545Z,101998.89
2023-02-12T21:23:56.810Z,101985.39
2023-02-12T21:27:25.722Z,101975.42
2023-02-12T21:30:54.954Z,101976.52
2023-02-12T21:34:24.194Z,101967.30
2023-02-12T21:37:53.407Z,101954.14
2023-02-12T21:41:16.003Z,101943.12
2023-02-12T21:44:44.447Z,101915.27
2023-02-12T21:48:13.637Z,101895.20
2023-02-12T21:51:42.720Z,101881.49
2023-02-12T21:55:14.735Z,101881.73
2023-02-12T21:58:43.990Z,101867.58
2023-02-12T22:02:16.068Z,101844.45
2023-02-12T22:05:45.219Z,101844.52
2023-02-12T22:09:14.485Z,101849.27
2023-02-12T22:12:43.192Z,101827.58
2023-02-12T22:16:12.553Z,101808.13
2023-02-12T22:19:42.056Z,101790.09
2023-02-12T22:23:11.244Z,101783.73
2023-02-12T22:26:46.047Z,101783.32
2023-02-12T22:30:15.178Z,101794.88
2023-02-12T22:33:44.177Z,101794.88
2023-02-12T22:37:03.822Z,101789.83
2023-02-12T22:40:33.242Z,101792.36
2023-02-12T22:43:49.848Z,101793.66
2023-02-12T22:47:19.415Z,101777.08
2023-02-12T22:50:48.933Z,101774.66
2023-02-12T22:54:17.666Z,101771.09
2023-02-12T22:57:46.880Z,101761.14
2023-02-12T23:01:16.039Z,101739.93
2023-02-12T23:04:45.282Z,101730.09
2023-02-12T23:07:53.006Z,101726.69
2023-02-12T23:11:22.100Z,101712.52
2023-02-12T23:14:51.130Z,101699.75
2023-02-12T23:18:20.498Z,101696.86
2023-02-12T23:21:50.035Z,101686.86
2023-02-12T23:25:19.532Z,101676.20
2023-02-12T23:28:48.738Z,101664.67
2023-02-12T23:32:18.017Z,101658.48
2023-02-12T23:35:47.597Z,101652.27
2023-02-12T23:39:16.602Z,101647.61
2023-02-12T23:42:45.751Z,101647.63
2023-02-12T23:46:15.004Z,101637.91
2023-02-12T23:49:44.313Z,101626.30
2023-02-12T23:53:13.343Z,101623.58
2023-02-12T23:56:43.002Z,101612.20
